Maersk Danang — A8PS5 — position and weather

sailwx.info

Track history (hours):
 
Tides and Currents Weather Stations Pressure Air Temp Water Temp Dewpoint Dewpoint Depression Visibility Wind Speed Wind Dir Waves Ship Positions

Maersk Danang

Last reported at 2016-Jun-25 12:16 UTC. Time now 2016-Jun-26 13:51 UTC.
Position N 35°25' W 127°27'.

Length 294 m; draft 10.4 m.

Type: Ship (hazmat cat A). MMSI: 636091595.

Date/timePositionNaut miles runAvg speedWind from/ knotsBaromVisibWave heightAir tempDewpointWater temp
2016-Jun-25 12:16N 35°25' W 127°27'1920.4
2016-Jun-25 11:20N 35°11' W 127°12'1820.4
2016-Jun-25 10:26N 34°57' W 126°57'1820.3
2016-Jun-25 09:32N 34°44' W 126°42'2020.5
2016-Jun-25 08:34N 34°29' W 126°26'2520.4
2016-Jun-25 07:20N 34°10' W 126°07'1620.4
2016-Jun-25 06:32N 33°57' W 125°54'2020.4
2016-Jun-25 05:34N 33°42' W 125°38'6220.2
2016-Jun-25 02:31N 32°55' W 124°51'1920.1
2016-Jun-25 01:34N 32°40' W 124°36'2120.2
2016-Jun-25 00:32N 32°24' W 124°20'2020.3
2016-Jun-24 23:33N 32°09' W 124°05'2020.1
2016-Jun-24 22:34N 31°54' W 123°50'2020.0
2016-Jun-24 21:34N 31°38' W 123°35'2019.9
2016-Jun-24 20:33N 31°24' W 123°19'2020.0
2016-Jun-24 19:33N 31°10' W 123°03'2020.4
2016-Jun-24 18:33N 30°55' W 122°47'2020.2
2016-Jun-24 17:33N 30°40' W 122°31'2020.0
2016-Jun-24 16:33N 30°25' W 122°16'2120.2
2016-Jun-24 15:30N 30°09' W 121°59'1920.6
2016-Jun-24 14:34N 29°57' W 121°41'2120.8
2016-Jun-24 13:33N 29°45' W 121°22'2121.0
2016-Jun-24 12:32N 29°32' W 121°02'2121.0
2016-Jun-24 11:33N 29°20' W 120°42'2121.0
2016-Jun-24 10:33N 29°08' W 120°23'2121.0
2016-Jun-24 09:33N 28°56' W 120°03'2121.0
2016-Jun-24 08:33N 28°44' W 119°44'2121.0
2016-Jun-24 07:33N 28°31' W 119°24'2521.1
2016-Jun-24 06:22N 28°16' W 119°02'8121.2
2016-Jun-24 02:33N 27°28' W 117°48'6220.8
2016-Jun-23 23:33N 26°50' W 116°52'4421.2
2016-Jun-23 21:30N 26°24' W 116°13'  
2016-Jun-17 17:09N 09°07' W 079°48'5 5.0
2016-Jun-17 16:07N 09°11' W 079°51'4 6.2
2016-Jun-17 15:32N 09°12' W 079°54'3 3.3
2016-Jun-17 14:33N 09°15' W 079°55'1 1.1
2016-Jun-17 13:33N 09°16' W 079°55'0 0.4
2016-Jun-17 12:33N 09°17' W 079°55'4 3.6
2016-Jun-17 11:33N 09°20' W 079°55'7 6.9
2016-Jun-17 10:33N 09°27' W 079°54'1211.8
2016-Jun-17 09:33N 09°38' W 079°50'1515.2
2016-Jun-17 08:34N 09°52' W 079°43'  
Track history (hours):
 
Tides and Currents Weather Stations Pressure Air Temp Water Temp Dewpoint Dewpoint Depression Visibility Wind Speed Wind Dir Waves Ship Positions

Maersk Danang

Last reported at 2016-Jun-25 12:16 UTC. Time now 2016-Jun-26 13:51 UTC.
Position N 35°25' W 127°27'.

Length 294 m; draft 10.4 m.

Type: Ship (hazmat cat A). MMSI: 636091595.

Date/timePositionNaut miles runAvg speedWind from/ knotsBaromVisibWave heightAir tempDewpointWater temp
2016-Jun-25 12:16N 35°25' W 127°27'1920.4
2016-Jun-25 11:20N 35°11' W 127°12'1820.4
2016-Jun-25 10:26N 34°57' W 126°57'1820.3
2016-Jun-25 09:32N 34°44' W 126°42'2020.5
2016-Jun-25 08:34N 34°29' W 126°26'2520.4
2016-Jun-25 07:20N 34°10' W 126°07'1620.4
2016-Jun-25 06:32N 33°57' W 125°54'2020.4
2016-Jun-25 05:34N 33°42' W 125°38'6220.2
2016-Jun-25 02:31N 32°55' W 124°51'1920.1
2016-Jun-25 01:34N 32°40' W 124°36'2120.2
2016-Jun-25 00:32N 32°24' W 124°20'2020.3
2016-Jun-24 23:33N 32°09' W 124°05'2020.1
2016-Jun-24 22:34N 31°54' W 123°50'2020.0
2016-Jun-24 21:34N 31°38' W 123°35'2019.9
2016-Jun-24 20:33N 31°24' W 123°19'2020.0
2016-Jun-24 19:33N 31°10' W 123°03'2020.4
2016-Jun-24 18:33N 30°55' W 122°47'2020.2
2016-Jun-24 17:33N 30°40' W 122°31'2020.0
2016-Jun-24 16:33N 30°25' W 122°16'2120.2
2016-Jun-24 15:30N 30°09' W 121°59'1920.6
2016-Jun-24 14:34N 29°57' W 121°41'2120.8
2016-Jun-24 13:33N 29°45' W 121°22'2121.0
2016-Jun-24 12:32N 29°32' W 121°02'2121.0
2016-Jun-24 11:33N 29°20' W 120°42'2121.0
2016-Jun-24 10:33N 29°08' W 120°23'2121.0
2016-Jun-24 09:33N 28°56' W 120°03'2121.0
2016-Jun-24 08:33N 28°44' W 119°44'2121.0
2016-Jun-24 07:33N 28°31' W 119°24'2521.1
2016-Jun-24 06:22N 28°16' W 119°02'8121.2
2016-Jun-24 02:33N 27°28' W 117°48'6220.8
2016-Jun-23 23:33N 26°50' W 116°52'4421.2
2016-Jun-23 21:30N 26°24' W 116°13'  
2016-Jun-17 17:09N 09°07' W 079°48'5 5.0
2016-Jun-17 16:07N 09°11' W 079°51'4 6.2
2016-Jun-17 15:32N 09°12' W 079°54'3 3.3
2016-Jun-17 14:33N 09°15' W 079°55'1 1.1
2016-Jun-17 13:33N 09°16' W 079°55'0 0.4
2016-Jun-17 12:33N 09°17' W 079°55'4 3.6
2016-Jun-17 11:33N 09°20' W 079°55'7 6.9
2016-Jun-17 10:33N 09°27' W 079°54'1211.8
2016-Jun-17 09:33N 09°38' W 079°50'1515.2
2016-Jun-17 08:34N 09°52' W 079°43'  

Dump ship's entire track history